createdAt,value
2017-11-15T00:01:22.888Z,4.83
2017-11-15T00:03:50.970Z,4.20
2017-11-15T00:06:19.276Z,4.80
2017-11-15T00:08:48.354Z,4.80
2017-11-15T00:11:16.661Z,5.63
2017-11-15T00:13:44.972Z,3.73
2017-11-15T00:16:13.265Z,5.47
2017-11-15T00:18:41.577Z,7.50
2017-11-15T00:21:09.883Z,5.97
2017-11-15T00:23:38.156Z,7.87
2017-11-15T00:26:06.567Z,3.20
2017-11-15T00:28:34.833Z,5.33
2017-11-15T00:31:03.137Z,2.83
2017-11-15T00:33:31.234Z,5.30
2017-11-15T00:35:59.541Z,4.17
2017-11-15T00:38:27.669Z,4.80
2017-11-15T00:40:55.987Z,3.93
2017-11-15T00:43:24.298Z,9.27
2017-11-15T00:45:52.589Z,4.83
2017-11-15T00:48:20.847Z,5.27
2017-11-15T00:50:49.165Z,6.23
2017-11-15T00:53:17.442Z,5.60
2017-11-15T00:55:45.741Z,6.00
2017-11-15T00:58:14.021Z,5.10
2017-11-15T01:00:42.341Z,7.00
2017-11-15T01:03:10.651Z,3.40
2017-11-15T01:05:38.954Z,4.73
2017-11-15T01:08:07.284Z,4.57
2017-11-15T01:10:35.554Z,4.00
2017-11-15T01:13:03.860Z,5.33
2017-11-15T01:15:32.131Z,7.10
2017-11-15T01:18:00.463Z,4.80
2017-11-15T01:20:28.745Z,7.27
2017-11-15T01:22:57.014Z,6.70
2017-11-15T01:25:25.317Z,4.77
2017-11-15T01:27:53.686Z,3.83
2017-11-15T01:30:22.011Z,5.80
2017-11-15T01:32:51.100Z,3.83
2017-11-15T01:35:19.583Z,5.10
2017-11-15T01:37:48.665Z,4.77
2017-11-15T01:40:16.969Z,4.33
2017-11-15T01:42:46.044Z,6.93
2017-11-15T01:45:14.341Z,5.27
2017-11-15T01:47:43.235Z,5.23
2017-11-15T01:50:12.329Z,7.33
2017-11-15T01:52:40.605Z,4.40
2017-11-15T01:55:08.917Z,5.37
2017-11-15T01:57:37.181Z,5.40
2017-11-15T02:00:05.379Z,4.93
2017-11-15T02:02:33.704Z,7.90
2017-11-15T02:05:02.553Z,6.27
2017-11-15T02:07:30.677Z,4.67
2017-11-15T02:09:58.982Z,6.30
2017-11-15T02:12:27.301Z,6.90
2017-11-15T02:14:55.633Z,7.50
2017-11-15T02:17:23.934Z,5.40
2017-11-15T02:19:52.199Z,6.20
2017-11-15T02:22:20.528Z,5.73
2017-11-15T02:24:49.427Z,5.07
2017-11-15T02:27:17.548Z,5.20
2017-11-15T02:29:45.822Z,2.50
2017-11-15T02:32:14.094Z,5.63
2017-11-15T02:34:42.417Z,3.23
2017-11-15T02:37:10.728Z,6.40
2017-11-15T02:39:39.532Z,6.27
2017-11-15T02:42:07.848Z,5.90
2017-11-15T02:44:36.124Z,4.70
2017-11-15T02:47:04.457Z,4.70
2017-11-15T02:49:32.744Z,4.87
2017-11-15T02:52:01.074Z,4.50
2017-11-15T02:54:29.375Z,3.60
2017-11-15T02:56:57.689Z,2.93
2017-11-15T02:59:25.953Z,6.30
2017-11-15T03:01:54.260Z,4.80
2017-11-15T03:04:22.584Z,5.50
2017-11-15T03:06:51.648Z,5.87
2017-11-15T03:09:19.956Z,4.27
2017-11-15T03:11:48.258Z,4.90
2017-11-15T03:14:16.566Z,4.07
2017-11-15T03:16:44.862Z,3.50
2017-11-15T03:19:13.969Z,4.80
2017-11-15T03:21:43.002Z,7.20
2017-11-15T03:24:11.303Z,4.57
2017-11-15T03:26:39.636Z,4.33
2017-11-15T03:29:07.981Z,4.60
2017-11-15T03:31:36.286Z,3.60
2017-11-15T03:34:04.562Z,5.03
2017-11-15T03:36:32.892Z,3.60
2017-11-15T03:39:01.222Z,5.70
2017-11-15T03:41:30.245Z,6.10
2017-11-15T03:43:58.596Z,3.20
2017-11-15T03:46:27.689Z,3.17
2017-11-15T03:48:56.764Z,18.97
2017-11-15T03:51:25.063Z,3.63
2017-11-15T03:53:54.158Z,7.63
2017-11-15T03:56:23.230Z,4.87
2017-11-15T03:58:51.532Z,3.87
2017-11-15T04:01:19.853Z,4.50
2017-11-15T04:03:48.236Z,4.37
2017-11-15T04:06:16.587Z,4.23
2017-11-15T04:08:44.862Z,3.37
2017-11-15T04:11:13.206Z,6.30
2017-11-15T04:13:42.288Z,4.43
2017-11-15T04:16:10.567Z,4.80
2017-11-15T04:18:38.890Z,3.50
2017-11-15T04:21:07.164Z,2.93
2017-11-15T04:23:35.503Z,2.83
2017-11-15T04:26:03.799Z,2.77
2017-11-15T04:28:32.068Z,3.77
2017-11-15T04:31:00.345Z,6.00
2017-11-15T04:33:29.418Z,3.83
2017-11-15T04:35:58.510Z,3.10
2017-11-15T04:38:26.840Z,2.60
2017-11-15T04:40:55.148Z,6.87
2017-11-15T04:43:23.425Z,4.57
2017-11-15T04:45:51.556Z,3.83
2017-11-15T04:48:19.630Z,2.90
2017-11-15T04:50:48.200Z,11.20
2017-11-15T04:53:17.278Z,2.73
2017-11-15T04:55:45.641Z,3.23
2017-11-15T04:58:13.945Z,2.70
2017-11-15T05:00:42.246Z,3.13
2017-11-15T05:03:10.525Z,5.47
2017-11-15T05:05:38.833Z,5.50
2017-11-15T05:08:07.233Z,3.37
2017-11-15T05:10:35.506Z,3.93
2017-11-15T05:13:03.780Z,2.57
2017-11-15T05:15:32.087Z,3.27
2017-11-15T05:18:00.394Z,3.20
2017-11-15T05:20:28.659Z,3.20
2017-11-15T05:22:56.946Z,4.77
2017-11-15T05:25:25.321Z,2.90
2017-11-15T05:27:53.591Z,1.90
2017-11-15T05:30:21.925Z,2.20
2017-11-15T05:32:50.197Z,3.20
2017-11-15T05:35:18.457Z,3.33
2017-11-15T05:37:46.783Z,2.50
2017-11-15T05:40:15.848Z,2.83
2017-11-15T05:42:44.897Z,2.30
2017-11-15T05:45:13.167Z,2.40
2017-11-15T05:47:41.439Z,3.03
2017-11-15T05:50:10.824Z,2.20
2017-11-15T05:52:39.848Z,2.20
2017-11-15T05:55:08.159Z,2.30
2017-11-15T05:57:36.473Z,2.00
2017-11-15T06:00:04.813Z,2.97
2017-11-15T06:02:33.924Z,3.87
2017-11-15T06:05:02.302Z,2.00
2017-11-15T06:07:30.954Z,6.57
2017-11-15T06:09:59.319Z,3.60
2017-11-15T06:12:27.883Z,10.93
2017-11-15T06:14:56.450Z,2.97
2017-11-15T06:17:25.336Z,3.23
2017-11-15T06:19:53.935Z,4.80
2017-11-15T06:22:22.488Z,2.50
2017-11-15T06:24:50.944Z,2.70
2017-11-15T06:27:20.245Z,2.53
2017-11-15T06:29:48.748Z,1.93
2017-11-15T06:32:17.280Z,2.83
2017-11-15T06:34:46.945Z,1.57
2017-11-15T06:37:15.345Z,1.67
2017-11-15T06:39:43.579Z,2.50
2017-11-15T06:42:11.872Z,3.53
2017-11-15T06:44:40.412Z,3.50
2017-11-15T06:47:09.476Z,2.20
2017-11-15T06:49:37.797Z,2.50
2017-11-15T06:52:06.082Z,2.10
2017-11-15T06:54:34.217Z,2.80
2017-11-15T06:57:02.509Z,2.63
2017-11-15T06:59:30.842Z,2.97
2017-11-15T07:01:59.268Z,2.80
2017-11-15T07:04:27.581Z,2.47
2017-11-15T07:06:56.023Z,2.73
2017-11-15T07:09:24.328Z,3.37
2017-11-15T07:11:52.698Z,7.23
2017-11-15T07:14:21.001Z,1.70
2017-11-15T07:16:49.263Z,1.90
2017-11-15T07:19:17.564Z,2.40
2017-11-15T07:21:45.852Z,1.97
2017-11-15T07:24:14.164Z,2.23
2017-11-15T07:26:42.444Z,6.03
2017-11-15T07:29:10.758Z,2.33
2017-11-15T07:31:40.030Z,6.47
2017-11-15T07:34:08.288Z,2.50
2017-11-15T07:36:37.360Z,4.07
2017-11-15T07:39:05.379Z,2.60
2017-11-15T07:41:33.692Z,1.60
2017-11-15T07:44:01.989Z,3.03
2017-11-15T07:46:30.324Z,1.90
2017-11-15T07:48:58.420Z,3.43
2017-11-15T07:51:26.692Z,1.47
2017-11-15T07:53:55.013Z,3.80
2017-11-15T07:56:24.116Z,1.60
2017-11-15T07:58:53.200Z,1.30
2017-11-15T08:01:21.513Z,2.30
2017-11-15T08:03:49.788Z,2.03
2017-11-15T08:06:18.103Z,1.77
2017-11-15T08:08:46.557Z,1.90
2017-11-15T08:11:14.874Z,1.77
2017-11-15T08:13:43.170Z,3.03
2017-11-15T08:16:12.219Z,1.63
2017-11-15T08:18:40.525Z,2.27
2017-11-15T08:21:08.822Z,2.87
2017-11-15T08:23:37.886Z,1.47
2017-11-15T08:26:06.207Z,2.50
2017-11-15T08:28:34.486Z,2.40
2017-11-15T08:31:02.792Z,1.80
2017-11-15T08:33:31.116Z,1.77
2017-11-15T08:35:59.409Z,1.37
2017-11-15T08:38:27.509Z,1.40
2017-11-15T08:40:55.843Z,1.50
2017-11-15T08:43:24.888Z,2.10
2017-11-15T08:45:53.235Z,2.40
2017-11-15T08:48:22.316Z,1.70
2017-11-15T08:50:51.410Z,3.20
2017-11-15T08:53:19.717Z,2.07
2017-11-15T08:55:48.007Z,1.50
2017-11-15T08:58:16.310Z,1.37
2017-11-15T09:00:44.139Z,2.93
2017-11-15T09:03:12.398Z,1.90
2017-11-15T09:05:40.652Z,1.77
2017-11-15T09:08:08.958Z,2.27
2017-11-15T09:10:37.272Z,2.90
2017-11-15T09:13:05.613Z,1.57
2017-11-15T09:15:33.889Z,1.30
2017-11-15T09:18:02.169Z,1.63
2017-11-15T09:20:30.516Z,2.50
2017-11-15T09:22:58.903Z,2.57
2017-11-15T09:25:28.154Z,1.67
2017-11-15T09:27:56.562Z,1.63
2017-11-15T09:30:25.474Z,1.30
2017-11-15T09:32:54.505Z,1.70
2017-11-15T09:35:22.815Z,2.67
2017-11-15T09:37:51.116Z,2.43
2017-11-15T09:40:19.448Z,1.53
2017-11-15T09:42:47.732Z,2.63
2017-11-15T09:45:16.045Z,3.17
2017-11-15T09:47:44.349Z,3.37
2017-11-15T09:50:12.440Z,3.43
2017-11-15T09:52:40.757Z,2.90
2017-11-15T09:55:09.177Z,3.13
2017-11-15T09:57:38.231Z,3.73
2017-11-15T10:00:06.524Z,3.63
2017-11-15T10:02:35.167Z,2.60
2017-11-15T10:05:03.483Z,3.50
2017-11-15T10:07:31.764Z,2.87
2017-11-15T10:10:00.041Z,3.50
2017-11-15T10:12:28.341Z,3.97
2017-11-15T10:14:56.675Z,6.53
2017-11-15T10:17:24.995Z,3.07
2017-11-15T10:19:53.304Z,3.77
2017-11-15T10:22:21.635Z,3.10
2017-11-15T10:24:50.718Z,3.70
2017-11-15T10:27:19.037Z,2.97
2017-11-15T10:29:47.323Z,9.63
2017-11-15T10:32:15.718Z,4.20
2017-11-15T10:34:44.041Z,5.37
2017-11-15T10:37:12.355Z,3.20
2017-11-15T10:39:40.721Z,5.10
2017-11-15T10:42:09.047Z,6.03
2017-11-15T10:44:38.114Z,3.93
2017-11-15T10:47:06.419Z,3.50
2017-11-15T10:49:34.696Z,4.33
2017-11-15T10:52:03.014Z,4.90
2017-11-15T10:54:32.118Z,3.27
2017-11-15T10:57:01.216Z,3.27
2017-11-15T10:59:29.505Z,3.17
2017-11-15T11:01:58.024Z,2.60
2017-11-15T11:04:26.335Z,1.80
2017-11-15T11:06:54.683Z,4.20
2017-11-15T11:09:22.970Z,3.70
2017-11-15T11:11:51.324Z,1.80
2017-11-15T11:14:19.666Z,3.60
2017-11-15T11:16:47.957Z,4.33
2017-11-15T11:19:19.262Z,3.40
2017-11-15T11:21:47.633Z,4.20
2017-11-15T11:24:15.891Z,4.20
2017-11-15T11:26:44.216Z,4.80
2017-11-15T11:29:13.266Z,2.93
2017-11-15T11:31:41.582Z,3.63
2017-11-15T11:34:10.936Z,4.50
2017-11-15T11:36:39.256Z,2.90
2017-11-15T11:39:07.702Z,2.93
2017-11-15T11:41:36.015Z,1.90
2017-11-15T11:44:03.856Z,5.33
2017-11-15T11:46:32.419Z,11.80
2017-11-15T11:49:00.740Z,7.57
2017-11-15T11:51:29.218Z,12.80
2017-11-15T11:53:57.528Z,14.73
2017-11-15T11:56:25.831Z,22.00
2017-11-15T11:58:54.153Z,8.50
2017-11-15T12:01:24.204Z,17.00
2017-11-15T12:03:52.468Z,23.23
2017-11-15T12:06:20.776Z,15.13
2017-11-15T12:08:49.102Z,7.33
2017-11-15T12:11:17.440Z,11.70
2017-11-15T12:13:45.728Z,12.67
2017-11-15T12:16:14.095Z,12.57
2017-11-15T12:18:42.437Z,7.10
2017-11-15T12:21:10.765Z,9.90
2017-11-15T12:23:39.073Z,8.30
2017-11-15T12:26:07.417Z,7.50
2017-11-15T12:28:35.697Z,14.37
2017-11-15T12:31:04.161Z,7.50
2017-11-15T12:33:32.508Z,8.90
2017-11-15T12:36:00.833Z,6.67
2017-11-15T12:38:29.306Z,9.37
2017-11-15T12:40:57.637Z,6.63
2017-11-15T12:43:25.942Z,6.30
2017-11-15T12:45:54.270Z,7.50
2017-11-15T12:48:22.715Z,5.70
2017-11-15T12:50:51.046Z,5.57
2017-11-15T12:53:20.098Z,5.70
2017-11-15T12:55:48.463Z,4.37
2017-11-15T12:58:16.807Z,9.30
2017-11-15T13:00:45.076Z,5.37
2017-11-15T13:03:13.371Z,4.33
2017-11-15T13:05:42.792Z,5.63
2017-11-15T13:08:11.084Z,5.97
2017-11-15T13:10:39.445Z,11.03
2017-11-15T13:13:07.824Z,7.10
2017-11-15T13:15:37.152Z,4.80
2017-11-15T13:18:05.505Z,4.70
2017-11-15T13:20:33.777Z,4.67
2017-11-15T13:23:02.050Z,2.87
2017-11-15T13:25:30.423Z,7.00
2017-11-15T13:27:58.736Z,5.93
2017-11-15T13:30:27.102Z,8.07
2017-11-15T13:32:55.448Z,8.13
2017-11-15T13:35:23.724Z,5.03
2017-11-15T13:37:52.804Z,6.07
2017-11-15T13:40:21.875Z,4.50
2017-11-15T13:42:50.201Z,8.23
2017-11-15T13:45:18.614Z,5.27
2017-11-15T13:47:46.938Z,4.17
2017-11-15T13:50:16.042Z,7.03
2017-11-15T13:52:44.442Z,3.60
2017-11-15T13:55:12.768Z,4.67
2017-11-15T13:57:41.082Z,2.60
2017-11-15T14:00:11.131Z,6.80
2017-11-15T14:02:40.899Z,3.40
2017-11-15T14:05:09.225Z,7.20
2017-11-15T14:07:37.560Z,3.73
2017-11-15T14:10:05.856Z,4.47
2017-11-15T14:12:36.368Z,3.13
2017-11-15T14:15:04.408Z,4.83
2017-11-15T14:17:43.766Z,9.57
2017-11-15T14:20:12.091Z,15.27
2017-11-15T14:22:40.397Z,16.57
2017-11-15T14:25:08.686Z,15.23
2017-11-15T14:27:37.806Z,10.37
2017-11-15T14:30:06.831Z,9.43
2017-11-15T14:32:35.180Z,12.37
2017-11-15T14:35:03.505Z,11.50
2017-11-15T14:37:31.764Z,12.77
2017-11-15T14:40:00.422Z,11.73
2017-11-15T14:42:28.755Z,11.00
2017-11-15T14:44:57.560Z,13.50
2017-11-15T14:47:26.123Z,12.30
2017-11-15T14:49:56.266Z,12.23
2017-11-15T14:52:24.673Z,9.00
2017-11-15T14:54:52.956Z,10.77
2017-11-15T14:57:21.293Z,10.20
2017-11-15T14:59:50.903Z,7.70
2017-11-15T15:02:26.645Z,6.83
2017-11-15T15:05:11.828Z,8.37
2017-11-15T15:07:40.217Z,7.40
2017-11-15T15:10:09.627Z,6.17
2017-11-15T15:12:38.896Z,4.50
2017-11-15T15:15:07.716Z,5.77
2017-11-15T15:17:36.968Z,4.10
2017-11-15T15:20:05.289Z,7.27
2017-11-15T15:22:34.356Z,3.43
2017-11-15T15:25:03.449Z,4.47
2017-11-15T15:27:31.786Z,4.70
2017-11-15T15:30:00.576Z,3.63
2017-11-15T15:32:28.892Z,4.90
2017-11-15T15:34:57.224Z,4.57
2017-11-15T15:37:25.540Z,4.50
2017-11-15T15:39:54.710Z,4.07
2017-11-15T15:42:23.019Z,3.57
2017-11-15T15:44:51.361Z,4.97
2017-11-15T15:47:19.625Z,5.20
2017-11-15T15:49:48.214Z,6.00
2017-11-15T15:52:16.511Z,2.90
2017-11-15T15:54:44.940Z,4.20
2017-11-15T15:57:13.261Z,4.27
2017-11-15T15:59:41.694Z,2.80
2017-11-15T16:02:10.040Z,9.20
2017-11-15T16:04:38.314Z,2.57
2017-11-15T16:07:10.793Z,4.93
2017-11-15T16:09:39.068Z,3.53
2017-11-15T16:12:07.343Z,7.33
2017-11-15T16:14:35.725Z,4.57
2017-11-15T16:17:04.612Z,3.10
2017-11-15T16:19:32.923Z,3.40
2017-11-15T16:22:01.249Z,4.43
2017-11-15T16:24:29.582Z,2.07
2017-11-15T16:26:57.969Z,3.90
2017-11-15T16:29:26.414Z,2.83
2017-11-15T16:31:54.731Z,3.07
2017-11-15T16:34:23.014Z,3.30
2017-11-15T16:36:51.537Z,4.13
2017-11-15T16:39:19.860Z,2.40
2017-11-15T16:41:50.188Z,3.20
2017-11-15T16:44:21.174Z,3.27
2017-11-15T16:46:50.720Z,5.67
2017-11-15T16:49:19.139Z,2.57
2017-11-15T16:51:48.710Z,3.83
2017-11-15T16:54:17.017Z,4.73
2017-11-15T16:56:45.636Z,3.10
2017-11-15T16:59:14.439Z,4.23
2017-11-15T17:01:42.768Z,3.73
2017-11-15T17:04:11.080Z,4.13
2017-11-15T17:06:39.446Z,3.80
2017-11-15T17:09:07.570Z,4.00
2017-11-15T17:11:36.436Z,3.47
2017-11-15T17:14:11.361Z,2.50
2017-11-15T17:16:41.145Z,3.00
2017-11-15T17:19:09.423Z,4.77
2017-11-15T17:21:38.507Z,3.60
2017-11-15T17:24:07.551Z,3.20
2017-11-15T17:26:36.094Z,4.40
2017-11-15T17:29:05.644Z,2.70
2017-11-15T17:31:33.920Z,4.33
2017-11-15T17:34:02.196Z,5.00
2017-11-15T17:36:30.517Z,3.93
2017-11-15T17:38:58.849Z,3.70
2017-11-15T17:41:27.230Z,3.23
2017-11-15T17:43:55.557Z,2.97
2017-11-15T17:46:24.809Z,3.30
2017-11-15T17:48:53.138Z,2.50
2017-11-15T17:51:23.048Z,3.33
2017-11-15T17:53:52.135Z,4.47
2017-11-15T17:56:20.420Z,3.60
2017-11-15T17:58:49.561Z,3.73
2017-11-15T18:01:18.452Z,2.90
2017-11-15T18:03:46.728Z,2.70
2017-11-15T18:06:15.082Z,6.77
2017-11-15T18:08:43.389Z,3.13
2017-11-15T18:11:11.661Z,4.17
2017-11-15T18:13:40.678Z,8.33
2017-11-15T18:16:08.960Z,4.87
2017-11-15T18:18:37.285Z,3.40
2017-11-15T18:21:05.553Z,5.87
2017-11-15T18:23:34.193Z,2.93
2017-11-15T18:26:02.499Z,3.30
2017-11-15T18:28:30.836Z,2.83
2017-11-15T18:30:59.170Z,4.93
2017-11-15T18:33:29.966Z,3.70
2017-11-15T18:35:58.337Z,4.37
2017-11-15T18:38:26.610Z,2.73
2017-11-15T18:40:55.087Z,2.40
2017-11-15T18:43:23.422Z,4.50
2017-11-15T18:45:51.732Z,4.00
2017-11-15T18:48:20.107Z,3.07
2017-11-15T18:50:48.485Z,4.60
2017-11-15T18:53:16.799Z,3.70
2017-11-15T18:55:45.219Z,3.43
2017-11-15T18:58:13.937Z,6.30
2017-11-15T19:00:42.502Z,3.70
2017-11-15T19:03:10.924Z,3.27
2017-11-15T19:05:39.710Z,5.27
2017-11-15T19:08:08.034Z,2.60
2017-11-15T19:10:36.354Z,8.50
2017-11-15T19:13:04.423Z,4.07
2017-11-15T19:15:32.737Z,2.77
2017-11-15T19:18:01.112Z,4.30
2017-11-15T19:20:29.436Z,2.67
2017-11-15T19:22:57.997Z,3.90
2017-11-15T19:25:26.296Z,4.43
2017-11-15T19:27:54.676Z,5.17
2017-11-15T19:30:23.051Z,5.13
2017-11-15T19:32:51.571Z,4.00
2017-11-15T19:35:20.032Z,2.70
2017-11-15T19:37:48.398Z,3.60
2017-11-15T19:40:16.827Z,4.40
2017-11-15T19:42:45.803Z,2.97
2017-11-15T19:45:14.279Z,5.00
2017-11-15T19:47:44.709Z,7.17
2017-11-15T19:50:13.058Z,3.17
2017-11-15T19:52:41.426Z,4.90
2017-11-15T19:55:10.340Z,3.37
2017-11-15T19:57:38.618Z,4.37
2017-11-15T20:00:06.957Z,3.80
2017-11-15T20:02:35.263Z,3.40
2017-11-15T20:05:03.584Z,4.83
2017-11-15T20:07:31.917Z,4.60
2017-11-15T20:10:00.275Z,4.83
2017-11-15T20:12:29.401Z,3.63
2017-11-15T20:14:58.079Z,4.10
2017-11-15T20:17:27.014Z,4.37
2017-11-15T20:19:55.481Z,5.80
2017-11-15T20:22:24.539Z,5.10
2017-11-15T20:24:52.841Z,3.70
2017-11-15T20:27:21.212Z,3.50
2017-11-15T20:29:50.150Z,3.63
2017-11-15T20:32:18.970Z,4.63
2017-11-15T20:34:47.782Z,5.97
2017-11-15T20:37:16.491Z,3.90
2017-11-15T20:39:44.842Z,4.63
2017-11-15T20:42:14.278Z,4.47
2017-11-15T20:44:43.082Z,7.70
2017-11-15T20:47:16.297Z,5.37
2017-11-15T20:49:52.753Z,6.10
2017-11-15T20:52:25.611Z,5.50
2017-11-15T20:54:54.093Z,5.10
2017-11-15T20:57:22.620Z,4.40
2017-11-15T20:59:52.089Z,6.30
2017-11-15T21:02:20.772Z,6.20
2017-11-15T21:04:49.977Z,4.90
2017-11-15T21:07:18.555Z,5.50
2017-11-15T21:09:50.424Z,3.93
2017-11-15T21:12:20.227Z,3.90
2017-11-15T21:14:49.688Z,3.67
2017-11-15T21:17:18.326Z,6.03
2017-11-15T21:19:47.709Z,5.23
2017-11-15T21:22:16.116Z,7.30
2017-11-15T21:24:44.676Z,3.73
2017-11-15T21:27:13.063Z,5.77
2017-11-15T21:29:41.401Z,6.37
2017-11-15T21:32:10.224Z,6.63
2017-11-15T21:34:38.558Z,6.67
2017-11-15T21:37:06.851Z,8.00
2017-11-15T21:39:35.164Z,5.23
2017-11-15T21:42:03.947Z,4.27
2017-11-15T21:44:32.298Z,5.90
2017-11-15T21:47:00.571Z,8.40
2017-11-15T21:49:30.561Z,4.83
2017-11-15T21:51:59.636Z,5.10
2017-11-15T21:54:28.164Z,6.30
2017-11-15T21:57:07.564Z,7.07
2017-11-15T21:59:39.694Z,5.70
2017-11-15T22:02:10.109Z,6.70
2017-11-15T22:04:38.471Z,6.60
2017-11-15T22:07:06.809Z,9.27
2017-11-15T22:09:35.895Z,6.00
2017-11-15T22:12:04.207Z,4.47
2017-11-15T22:14:33.434Z,6.50
2017-11-15T22:17:01.837Z,5.60
2017-11-15T22:19:30.429Z,4.87
2017-11-15T22:21:58.769Z,8.63
2017-11-15T22:24:27.162Z,6.07
2017-11-15T22:26:55.474Z,6.40
2017-11-15T22:29:23.805Z,6.90
2017-11-15T22:31:55.982Z,6.73
2017-11-15T22:34:24.323Z,5.97
2017-11-15T22:36:52.655Z,6.97
2017-11-15T22:39:20.964Z,7.00
2017-11-15T22:41:50.834Z,6.03
2017-11-15T22:44:19.113Z,6.43
2017-11-15T22:46:47.819Z,9.00
2017-11-15T22:49:16.196Z,5.80
2017-11-15T22:51:44.580Z,6.43
2017-11-15T22:54:12.426Z,5.83
2017-11-15T22:56:45.689Z,5.67
2017-11-15T22:59:21.710Z,7.03
2017-11-15T23:01:51.933Z,5.70
2017-11-15T23:04:27.521Z,6.57
2017-11-15T23:07:05.349Z,9.10
2017-11-15T23:09:34.676Z,6.60
2017-11-15T23:12:02.976Z,8.97
2017-11-15T23:14:31.376Z,6.90
2017-11-15T23:17:01.580Z,6.77
2017-11-15T23:19:29.963Z,6.97
2017-11-15T23:21:59.075Z,6.47
2017-11-15T23:24:28.229Z,9.10
2017-11-15T23:26:56.603Z,6.80
2017-11-15T23:29:24.876Z,8.57
2017-11-15T23:31:53.157Z,5.63
2017-11-15T23:34:21.486Z,8.03
2017-11-15T23:36:50.570Z,8.63
2017-11-15T23:39:18.396Z,6.30
2017-11-15T23:41:46.656Z,5.93
2017-11-15T23:44:14.964Z,9.00
2017-11-15T23:46:43.938Z,6.73
2017-11-15T23:49:12.473Z,7.80
2017-11-15T23:51:41.919Z,5.93
2017-11-15T23:54:10.430Z,8.03
2017-11-15T23:56:38.833Z,5.60
2017-11-15T23:59:07.200Z,7.20
